Time;durP1;ratioP1;P1;durP2;ratioP2;P2;SDS_P1;SDS_P2;PMS_P1;PMS_P2;Temp;Humidity;BMP_temperature;BMP_pressure;BME280_temperature;BME280_humidity;BME280_pressure;Samples;Min_cycle;Max_cycle;Signal;HPM_P1;HPM_P2
2022/04/20 00:00:34;;;;;;;26.23;17.75;;;9.10;89.30;;;;;;5073006;28;20020;-51
2022/04/20 00:03:01;;;;;;;27.50;17.35;;;9.10;88.90;;;;;;5073273;28;20063;-51
2022/04/20 00:05:27;;;;;;;29.08;18.02;;;9.10;88.70;;;;;;5073301;28;20020;-54
2022/04/20 00:07:52;;;;;;;26.30;17.30;;;9.10;88.90;;;;;;5073477;28;20024;-50
2022/04/20 00:10:18;;;;;;;31.30;18.75;;;9.10;89.00;;;;;;5073546;28;20539;-52
2022/04/20 00:12:44;;;;;;;30.08;17.67;;;9.10;88.80;;;;;;5073330;28;20043;-49
2022/04/20 00:15:10;;;;;;;32.40;19.30;;;9.10;88.70;;;;;;5073136;28;20032;-56
2022/04/20 00:17:35;;;;;;;31.95;18.48;;;9.10;88.70;;;;;;5073309;28;20101;-46
2022/04/20 00:20:01;;;;;;;27.42;18.60;;;9.10;88.10;;;;;;5073334;28;20102;-46
2022/04/20 00:22:27;;;;;;;37.22;19.92;;;9.10;88.40;;;;;;5073124;28;20032;-43
2022/04/20 00:24:52;;;;;;;28.90;18.17;;;9.10;88.10;;;;;;5072962;28;20028;-43
2022/04/20 00:27:18;;;;;;;32.67;19.17;;;9.10;87.90;;;;;;5073106;28;20109;-43
2022/04/20 00:29:44;;;;;;;37.03;19.98;;;9.00;87.80;;;;;;5073173;28;20115;-50
2022/04/20 00:32:10;;;;;;;34.58;19.83;;;9.10;87.90;;;;;;5073015;28;20052;-51
2022/04/20 00:34:35;;;;;;;27.42;18.40;;;9.10;88.00;;;;;;5073003;28;20047;-46
2022/04/20 00:37:01;;;;;;;31.80;20.13;;;9.00;88.10;;;;;;5072646;28;20502;-46
2022/04/20 00:39:27;;;;;;;30.73;19.08;;;9.00;88.30;;;;;;5072931;28;20086;-48
2022/04/20 00:41:53;;;;;;;32.92;20.08;;;8.90;88.20;;;;;;5072853;28;20099;-48
2022/04/20 00:44:19;;;;;;;30.95;18.92;;;9.00;88.10;;;;;;5072965;28;20032;-49
2022/04/20 00:46:47;;;;;;;31.30;19.73;;;8.90;88.30;;;;;;5072635;28;20035;-48
2022/04/20 00:49:14;;;;;;;31.60;19.33;;;9.00;88.20;;;;;;5072602;28;20370;-44
2022/04/20 00:52:00;;;;;;;35.90;20.35;;;8.90;88.30;;;;;;5072149;28;20392;-49
2022/04/20 00:54:26;;;;;;;31.13;20.08;;;8.90;88.20;;;;;;5072701;28;20065;-49
2022/04/20 00:56:51;;;;;;;33.25;19.13;;;8.90;88.20;;;;;;5072301;28;20499;-48
2022/04/20 00:59:23;;;;;;;27.20;18.52;;;8.90;88.20;;;;;;5072044;28;20033;-47
2022/04/20 01:01:50;;;;;;;30.17;18.35;;;8.90;88.30;;;;;;5072363;28;20025;-50
2022/04/20 01:04:16;;;;;;;33.65;20.02;;;8.90;88.80;;;;;;5072195;28;20024;-49
2022/04/20 01:06:42;;;;;;;32.55;20.20;;;8.90;88.40;;;;;;5072224;28;20047;-44
2022/04/20 01:09:07;;;;;;;30.42;19.60;;;8.90;88.20;;;;;;5072337;28;20541;-44
2022/04/20 01:11:33;;;;;;;30.67;19.67;;;8.90;88.20;;;;;;5072143;28;20024;-47
2022/04/20 01:13:59;;;;;;;34.90;20.13;;;8.90;89.10;;;;;;5072210;28;20068;-45
2022/04/20 01:16:24;;;;;;;29.90;18.88;;;9.00;88.20;;;;;;5071642;28;20052;-52
2022/04/20 01:18:50;;;;;;;31.35;19.02;;;9.00;89.00;;;;;;5071978;28;20062;-47
2022/04/20 01:21:16;;;;;;;31.90;19.95;;;9.00;88.40;;;;;;5072024;28;20095;-48
2022/04/20 01:23:45;;;;;;;32.35;19.05;;;8.90;88.70;;;;;;5072126;28;20074;-44
2022/04/20 01:26:11;;;;;;;31.58;19.90;;;8.90;88.70;;;;;;5071750;28;20028;-43
2022/04/20 01:28:41;;;;;;;31.10;20.05;;;8.90;88.90;;;;;;5071878;28;20039;-50
2022/04/20 01:31:07;;;;;;;35.08;20.13;;;8.90;89.10;;;;;;5071711;28;20333;-55
2022/04/20 01:33:33;;;;;;;32.00;18.48;;;8.90;89.00;;;;;;5071755;28;20016;-43
2022/04/20 01:35:59;;;;;;;29.48;19.45;;;8.90;88.80;;;;;;5071423;28;20127;-46
2022/04/20 01:38:26;;;;;;;33.35;19.52;;;9.00;89.20;;;;;;5071905;28;20029;-47
2022/04/20 01:40:52;;;;;;;31.25;20.15;;;8.90;89.10;;;;;;5071630;28;20464;-52
2022/04/20 01:43:18;;;;;;;35.17;19.92;;;8.90;89.10;;;;;;5071734;28;20036;-48
2022/04/20 01:45:43;;;;;;;31.85;18.65;;;8.90;89.60;;;;;;5071250;28;20043;-48
2022/04/20 01:48:09;;;;;;;31.48;19.58;;;8.90;89.60;;;;;;5071599;28;20435;-48
2022/04/20 01:51:46;;;;;;;33.15;19.08;;;8.90;89.70;;;;;;5071361;28;20100;-43
2022/04/20 01:53:21;;;;;;;30.75;18.85;;;8.90;89.70;;;;;;5071409;28;20025;-45
2022/04/20 01:55:47;;;;;;;31.45;19.27;;;8.80;89.90;;;;;;5071326;28;20021;-49
2022/04/20 01:58:12;;;;;;;31.05;19.55;;;8.90;90.00;;;;;;5071240;28;20407;-46
2022/04/20 02:00:38;;;;;;;29.83;19.75;;;8.90;89.90;;;;;;5071359;28;20426;-45
2022/04/20 02:03:04;;;;;;;34.20;19.75;;;8.90;89.90;;;;;;5071070;28;20043;-46
2022/04/20 02:05:29;;;;;;;38.10;19.98;;;8.90;90.20;;;;;;5070982;28;20020;-49
2022/04/20 02:07:57;;;;;;;33.60;19.88;;;8.90;89.90;;;;;;5071383;28;20028;-50
2022/04/20 02:10:23;;;;;;;34.75;19.92;;;8.90;90.10;;;;;;5069937;28;20163;-56
2022/04/20 02:12:48;;;;;;;32.45;19.75;;;8.90;90.10;;;;;;5071184;28;20017;-47
2022/04/20 02:15:14;;;;;;;29.73;18.98;;;8.90;90.10;;;;;;5070888;28;20528;-49
2022/04/20 02:17:40;;;;;;;38.10;18.65;;;8.90;90.10;;;;;;5071008;28;20077;-50
2022/04/20 02:20:06;;;;;;;31.27;19.73;;;8.90;90.10;;;;;;5070551;28;20056;-51
2022/04/20 02:22:32;;;;;;;31.15;19.08;;;8.90;90.00;;;;;;5071118;28;20020;-51
2022/04/20 02:24:59;;;;;;;32.20;19.08;;;8.90;90.10;;;;;;5070983;28;20402;-47
2022/04/20 02:27:26;;;;;;;32.03;19.48;;;8.90;90.20;;;;;;5070921;28;20029;-50
2022/04/20 02:29:52;;;;;;;31.98;20.45;;;8.80;90.30;;;;;;5070989;28;20021;-50
2022/04/20 02:32:17;;;;;;;33.05;20.75;;;8.80;90.40;;;;;;5070960;28;20124;-52
2022/04/20 02:34:43;;;;;;;34.15;20.67;;;8.80;90.50;;;;;;5070824;28;20025;-46
2022/04/20 02:37:10;;;;;;;33.35;19.15;;;8.80;90.50;;;;;;5070724;28;20111;-46
2022/04/20 02:39:37;;;;;;;32.67;19.33;;;8.80;90.50;;;;;;5070920;28;20029;-50
2022/04/20 02:42:07;;;;;;;32.25;20.83;;;8.80;90.50;;;;;;5070880;28;20386;-53
2022/04/20 02:44:33;;;;;;;32.08;19.65;;;8.80;90.60;;;;;;5071169;28;20051;-45
2022/04/20 02:46:59;;;;;;;33.95;19.02;;;8.80;90.60;;;;;;5070836;28;20099;-52
2022/04/20 02:49:24;;;;;;;33.80;19.23;;;8.80;90.60;;;;;;5070893;28;20116;-48
2022/04/20 02:51:50;;;;;;;32.58;20.23;;;8.70;90.80;;;;;;5070882;28;20025;-46
2022/04/20 02:54:16;;;;;;;34.83;20.70;;;8.70;90.90;;;;;;5070869;28;20131;-48
2022/04/20 02:56:42;;;;;;;30.58;20.13;;;8.60;91.00;;;;;;5070452;28;20029;-48
2022/04/20 02:59:07;;;;;;;33.90;20.23;;;8.70;91.00;;;;;;5070830;28;20387;-52
2022/04/20 03:01:33;;;;;;;34.45;19.88;;;8.60;91.20;;;;;;5070808;28;20020;-52
2022/04/20 03:03:59;;;;;;;30.05;19.67;;;8.60;91.20;;;;;;5070676;28;20139;-43
2022/04/20 03:06:27;;;;;;;37.38;20.50;;;8.60;91.30;;;;;;5069298;28;20384;-47
2022/04/20 03:08:53;;;;;;;37.33;21.60;;;8.60;91.40;;;;;;5070677;28;20104;-46
2022/04/20 03:11:19;;;;;;;37.25;21.80;;;8.60;91.40;;;;;;5070574;28;20048;-47
2022/04/20 03:13:46;;;;;;;35.78;20.65;;;8.60;91.30;;;;;;5070784;28;20032;-47
2022/04/20 03:16:11;;;;;;;34.53;22.33;;;8.60;91.40;;;;;;5072481;28;20048;-43
2022/04/20 03:18:37;;;;;;;36.85;21.48;;;8.60;91.40;;;;;;5073898;28;20361;-50
2022/04/20 03:21:03;;;;;;;35.78;21.38;;;8.60;91.40;;;;;;5074377;28;20028;-46
2022/04/20 03:23:29;;;;;;;38.60;22.13;;;8.60;91.50;;;;;;5074181;28;20056;-43
2022/04/20 03:25:55;;;;;;;36.55;23.10;;;8.60;91.50;;;;;;5073965;28;20025;-43
2022/04/20 03:28:21;;;;;;;38.53;23.13;;;8.60;91.60;;;;;;5074040;28;20024;-48
2022/04/20 03:30:47;;;;;;;38.47;22.95;;;8.50;91.60;;;;;;5074227;28;20157;-55
2022/04/20 03:33:13;;;;;;;35.83;23.05;;;8.50;91.70;;;;;;5074163;28;20028;-48
2022/04/20 03:35:39;;;;;;;37.50;21.48;;;8.50;91.80;;;;;;5073912;28;20119;-56
2022/04/20 03:38:06;;;;;;;41.83;24.10;;;8.40;92.00;;;;;;5074074;28;20037;-55
2022/04/20 03:40:32;;;;;;;38.00;23.30;;;8.40;92.10;;;;;;5071897;28;20044;-55
2022/04/20 03:42:58;;;;;;;37.78;22.60;;;8.40;92.20;;;;;;5073894;28;20031;-54
2022/04/20 03:45:24;;;;;;;42.95;23.88;;;8.40;92.20;;;;;;5073248;28;20029;-55
2022/04/20 03:47:49;;;;;;;41.85;23.13;;;8.40;92.30;;;;;;5073164;28;20044;-53
2022/04/20 03:50:15;;;;;;;38.38;24.25;;;8.40;92.40;;;;;;5073735;28;20029;-43
2022/04/20 03:52:41;;;;;;;38.17;23.45;;;8.30;92.30;;;;;;5073618;28;20503;-43
2022/04/20 03:55:07;;;;;;;44.55;24.33;;;8.30;92.40;;;;;;5073200;28;20024;-43
2022/04/20 03:57:33;;;;;;;41.45;23.17;;;8.30;92.40;;;;;;5073478;28;20043;-43
2022/04/20 03:59:59;;;;;;;40.78;25.23;;;8.20;92.50;;;;;;5073387;28;20021;-43
2022/04/20 04:02:24;;;;;;;43.78;24.52;;;8.20;92.70;;;;;;5073513;28;20055;-53
2022/04/20 04:04:50;;;;;;;44.58;25.40;;;8.20;92.70;;;;;;5073239;28;20032;-52
2022/04/20 04:07:16;;;;;;;47.08;25.20;;;8.20;92.80;;;;;;5073267;28;20029;-54
2022/04/20 04:09:42;;;;;;;47.67;25.80;;;8.10;92.90;;;;;;5073409;28;20079;-48
2022/04/20 04:12:09;;;;;;;43.08;24.88;;;8.10;93.00;;;;;;5073308;28;20025;-44
2022/04/20 04:14:41;;;;;;;46.25;26.38;;;8.10;93.10;;;;;;5073257;28;20102;-48
2022/04/20 04:17:08;;;;;;;40.75;24.77;;;8.10;93.20;;;;;;5052932;28;20041;-51
2022/04/20 04:19:35;;;;;;;46.08;26.60;;;8.10;93.20;;;;;;5053047;28;20060;-46
2022/04/20 04:22:04;;;;;;;46.22;26.55;;;8.00;93.30;;;;;;5053145;28;20044;-46
2022/04/20 04:24:36;;;;;;;;;;;8.00;93.40;;;;;;5053741;28;20056;-44
2022/04/20 04:27:03;;;;;;;44.35;25.35;;;8.00;93.40;;;;;;5072474;28;20523;-51
2022/04/20 04:29:31;;;;;;;48.75;26.60;;;7.90;93.50;;;;;;5073010;28;20033;-46
2022/04/20 04:31:57;;;;;;;42.95;25.63;;;7.90;93.60;;;;;;5073106;28;20426;-49
2022/04/20 04:34:22;;;;;;;48.20;27.20;;;7.90;93.70;;;;;;5072793;28;20025;-44
2022/04/20 04:36:50;;;;;;;46.72;26.55;;;7.90;93.80;;;;;;5072332;28;20037;-45
2022/04/20 04:39:17;;;;;;;48.85;27.05;;;7.90;93.70;;;;;;5072792;28;20503;-50
2022/04/20 04:41:46;;;;;;;48.90;28.20;;;7.90;93.80;;;;;;5071599;28;20037;-45
2022/04/20 04:44:12;;;;;;;53.03;28.10;;;7.90;93.80;;;;;;5072806;28;20032;-46
2022/04/20 04:49:22;;;;;;;49.53;27.27;;;8.00;93.70;;;;;;5072526;28;20494;-47
2022/04/20 04:51:48;;;;;;;49.78;27.35;;;8.00;93.70;;;;;;5072500;28;20025;-51
2022/04/20 04:54:14;;;;;;;50.85;28.67;;;8.10;93.70;;;;;;5072675;28;20024;-43
2022/04/20 04:56:40;;;;;;;50.08;28.35;;;8.10;93.70;;;;;;5072324;28;20036;-50
2022/04/20 04:59:06;;;;;;;49.92;29.50;;;8.10;93.60;;;;;;5072482;28;20050;-50
2022/04/20 05:01:31;;;;;;;49.20;29.60;;;8.10;93.60;;;;;;5072419;28;20021;-43
2022/04/20 05:03:57;;;;;;;48.97;29.33;;;8.10;93.60;;;;;;5072470;28;20031;-47
2022/04/20 05:06:23;;;;;;;50.10;27.88;;;8.10;93.60;;;;;;5072242;28;20107;-45
2022/04/20 05:08:48;;;;;;;49.70;27.85;;;8.20;93.60;;;;;;5072264;28;20047;-47
2022/04/20 05:11:14;;;;;;;47.83;28.52;;;8.20;93.60;;;;;;5072289;28;20025;-47
2022/04/20 05:13:39;;;;;;;47.05;28.58;;;8.30;93.50;;;;;;5072234;28;20527;-53
2022/04/20 05:16:05;;;;;;;51.60;29.65;;;8.30;93.30;;;;;;5071613;28;20063;-52
2022/04/20 05:18:31;;;;;;;50.55;28.73;;;8.40;93.30;;;;;;5069829;28;20039;-53
2022/04/20 05:20:56;;;;;;;51.75;29.63;;;8.40;93.20;;;;;;5070164;28;20017;-49
2022/04/20 05:23:22;;;;;;;44.38;28.17;;;8.40;93.20;;;;;;5071465;28;20021;-46
2022/04/20 05:25:48;;;;;;;51.45;27.95;;;8.50;93.30;;;;;;5069634;28;20356;-49
2022/04/20 05:28:14;;;;;;;46.45;26.55;;;8.60;92.80;;;;;;5071865;28;20033;-45
2022/04/20 05:30:40;;;;;;;52.00;27.48;;;8.70;92.70;;;;;;5070619;28;20021;-47
2022/04/20 05:33:06;;;;;;;45.33;27.13;;;8.70;92.50;;;;;;5071876;28;20033;-47
2022/04/20 05:35:32;;;;;;;46.92;26.67;;;8.80;92.40;;;;;;5071502;28;20497;-49
2022/04/20 05:43:26;;;;;;;46.08;26.02;;;8.90;92.10;;;;;;5071866;28;20075;-50
2022/04/20 05:45:52;;;;;;;44.30;24.92;;;9.00;91.90;;;;;;5071536;28;20032;-50
2022/04/20 05:48:18;;;;;;;51.15;27.98;;;9.00;91.70;;;;;;5070139;28;20028;-49
2022/04/20 05:50:43;;;;;;;48.92;26.95;;;9.10;91.80;;;;;;5071578;28;20033;-52
2022/04/20 05:53:09;;;;;;;41.83;25.38;;;9.10;91.60;;;;;;5070218;28;20558;-50
2022/04/20 05:55:35;;;;;;;43.92;25.30;;;9.20;91.60;;;;;;5070289;28;20115;-46
2022/04/20 05:58:01;;;;;;;46.63;25.67;;;9.20;91.40;;;;;;5070741;28;20040;-44
2022/04/20 06:00:27;;;;;;;40.60;26.10;;;9.20;91.20;;;;;;5069447;28;20028;-48
2022/04/20 06:02:54;;;;;;;48.38;25.90;;;9.30;91.20;;;;;;5070110;28;20032;-50
2022/04/20 06:05:23;;;;;;;42.30;26.48;;;9.20;91.20;;;;;;5069767;28;20484;-51
2022/04/20 06:07:49;;;;;;;44.03;26.40;;;9.20;91.10;;;;;;5068834;28;20103;-45
2022/04/20 06:10:15;;;;;;;45.22;24.85;;;9.20;91.20;;;;;;5067524;28;20124;-45
2022/04/20 06:12:41;;;;;;;43.50;25.38;;;9.20;91.20;;;;;;5068308;28;20024;-46
2022/04/20 06:15:08;;;;;;;41.70;26.05;;;9.30;91.10;;;;;;5070227;28;20028;-47
2022/04/20 06:17:34;;;;;;;42.70;26.25;;;9.30;91.00;;;;;;5069277;28;20036;-46
2022/04/20 06:20:00;;;;;;;43.05;24.60;;;9.40;91.00;;;;;;5071188;28;20162;-46
2022/04/20 06:22:26;;;;;;;41.95;25.70;;;9.50;90.70;;;;;;5069803;28;20081;-51
2022/04/20 06:24:51;;;;;;;46.33;25.80;;;9.50;90.60;;;;;;5071111;28;20107;-49
2022/04/20 06:27:17;;;;;;;39.28;23.92;;;9.60;90.30;;;;;;5071144;28;20113;-49
2022/04/20 06:29:43;;;;;;;45.38;24.38;;;9.80;90.30;;;;;;5071073;28;20017;-51
2022/04/20 06:32:09;;;;;;;39.63;22.83;;;10.00;89.80;;;;;;5071123;28;20029;-47
2022/04/20 06:34:35;;;;;;;39.33;22.58;;;10.50;87.70;;;;;;5070277;28;20028;-45
2022/04/20 06:37:00;;;;;;;32.75;20.65;;;11.30;86.00;;;;;;5069511;28;20138;-50
2022/04/20 06:39:26;;;;;;;38.20;20.10;;;12.20;82.90;;;;;;5070493;28;20100;-46
2022/04/20 06:41:52;;;;;;;33.00;20.20;;;12.40;77.30;;;;;;5070598;28;20056;-50
2022/04/20 06:44:18;;;;;;;33.25;20.17;;;12.60;77.20;;;;;;5070802;28;20407;-53
2022/04/20 06:46:45;;;;;;;31.10;20.48;;;12.70;76.40;;;;;;5070471;28;20015;-47
2022/04/20 06:49:11;;;;;;;34.75;19.42;;;12.70;75.80;;;;;;5071789;28;20028;-48
2022/04/20 06:59:51;;;;;;;26.38;17.40;;;15.70;66.10;;;;;;5074050;28;20533;-54
2022/04/20 07:02:17;;;;;;;25.85;17.33;;;16.80;62.40;;;;;;5073926;28;20059;-49
2022/04/20 07:04:43;;;;;;;25.35;16.42;;;17.00;58.60;;;;;;5073632;28;20605;-45
2022/04/20 07:07:08;;;;;;;26.88;16.20;;;17.80;59.60;;;;;;5073742;28;20025;-49
2022/04/20 07:09:34;;;;;;;25.70;16.00;;;18.50;56.40;;;;;;5074341;28;20032;-49
2022/04/20 07:12:00;;;;;;;21.77;14.63;;;18.90;54.70;;;;;;5074667;28;20454;-43
2022/04/20 07:14:26;;;;;;;19.73;14.35;;;19.80;53.20;;;;;;5074503;28;20035;-43
2022/04/20 07:16:51;;;;;;;23.50;15.88;;;21.00;52.40;;;;;;5072866;28;20048;-45
2022/04/20 07:19:17;;;;;;;24.08;15.30;;;20.80;48.10;;;;;;5074254;28;20349;-43
2022/04/20 07:21:42;;;;;;;24.27;15.88;;;21.30;47.10;;;;;;5074388;28;20494;-45
2022/04/20 07:24:08;;;;;;;19.42;14.32;;;21.80;46.90;;;;;;5074253;28;20078;-43
2022/04/20 07:26:34;;;;;;;18.92;15.40;;;22.10;46.60;;;;;;5074416;28;20032;-43
2022/04/20 07:28:59;;;;;;;22.92;15.10;;;22.20;43.60;;;;;;5073919;28;20033;-43
2022/04/20 07:31:25;;;;;;;20.58;15.18;;;22.30;41.50;;;;;;5074234;28;20024;-50
2022/04/20 07:33:50;;;;;;;24.52;15.13;;;21.90;42.70;;;;;;5073538;28;20379;-44
2022/04/20 07:36:16;;;;;;;19.60;12.77;;;22.00;44.90;;;;;;5070769;28;20033;-45
2022/04/20 07:38:42;;;;;;;19.27;13.90;;;23.00;43.20;;;;;;5074084;28;20391;-48
2022/04/20 07:41:08;;;;;;;20.20;13.23;;;23.20;41.50;;;;;;5073071;28;20433;-46
2022/04/20 07:43:35;;;;;;;18.35;13.25;;;23.10;39.80;;;;;;5073445;28;20028;-44
2022/04/20 07:46:00;;;;;;;22.63;13.85;;;22.30;41.80;;;;;;5072886;28;20028;-45
2022/04/20 07:48:26;;;;;;;18.77;13.40;;;20.90;42.60;;;;;;5073643;28;20104;-51
2022/04/20 07:50:52;;;;;;;17.27;12.98;;;21.40;45.00;;;;;;5073728;28;20095;-47
2022/04/20 07:53:17;;;;;;;19.00;13.50;;;22.00;44.80;;;;;;5073696;28;20051;-49
2022/04/20 07:55:46;;;;;;;21.48;13.93;;;21.60;42.20;;;;;;5073515;28;20032;-44
2022/04/20 07:58:13;;;;;;;19.23;11.98;;;21.10;43.60;;;;;;5073625;28;20063;-44
2022/04/20 08:00:40;;;;;;;21.25;13.05;;;21.20;47.00;;;;;;5072745;28;20479;-48
2022/04/20 08:03:11;;;;;;;18.27;11.52;;;21.60;44.10;;;;;;5073134;28;20029;-51
2022/04/20 08:05:37;;;;;;;20.15;12.95;;;21.60;45.70;;;;;;5073555;28;20032;-47
2022/04/20 08:08:04;;;;;;;20.10;12.15;;;21.40;41.60;;;;;;5072632;28;20025;-44
2022/04/20 08:10:30;;;;;;;17.23;11.95;;;22.30;42.80;;;;;;5072817;28;20383;-49
2022/04/20 08:12:55;;;;;;;16.80;11.77;;;22.50;37.80;;;;;;5073443;28;20029;-49
2022/04/20 08:15:21;;;;;;;15.88;11.13;;;23.70;39.50;;;;;;5073249;28;20049;-51
2022/04/20 08:17:47;;;;;;;14.23;10.63;;;24.30;37.80;;;;;;5071427;28;20048;-45
2022/04/20 08:20:12;;;;;;;15.05;10.73;;;24.90;37.10;;;;;;5072566;28;20032;-44
2022/04/20 08:22:43;;;;;;;17.58;10.95;;;25.40;34.90;;;;;;5072148;28;20028;-44
2022/04/20 08:25:10;;;;;;;14.93;10.02;;;26.20;35.10;;;;;;5073109;28;20024;-44
2022/04/20 08:27:37;;;;;;;14.67;9.33;;;27.10;33.10;;;;;;5073667;28;20052;-45
2022/04/20 08:30:07;;;;;;;16.70;10.68;;;27.90;32.30;;;;;;5071884;28;20277;-46
2022/04/20 08:32:33;;;;;;;14.73;8.90;;;26.50;30.60;;;;;;5072365;28;20035;-49
2022/04/20 08:34:59;;;;;;;12.45;8.43;;;26.10;34.40;;;;;;5071838;28;20029;-55
2022/04/20 08:37:25;;;;;;;17.17;9.63;;;26.60;34.40;;;;;;5071978;28;20021;-46
2022/04/20 08:39:50;;;;;;;13.93;10.25;;;26.10;32.10;;;;;;5072909;28;20368;-49
2022/04/20 08:42:19;;;;;;;14.73;8.77;;;25.60;31.90;;;;;;5071922;28;20102;-45
2022/04/20 08:44:48;;;;;;;13.18;8.73;;;25.90;34.20;;;;;;5072740;28;20030;-45
2022/04/20 08:47:21;;;;;;;17.63;9.48;;;26.60;33.50;;;;;;5072947;28;20090;-45
2022/04/20 08:49:49;;;;;;;14.00;8.63;;;27.50;29.30;;;;;;5069793;28;20024;-47
2022/04/20 08:52:37;;;;;;;13.57;8.80;;;28.70;31.20;;;;;;5071292;28;20024;-48
2022/04/20 08:55:07;;;;;;;10.95;8.18;;;29.70;28.30;;;;;;5072415;28;20029;-47
2022/04/20 08:57:34;;;;;;;12.05;7.93;;;29.70;29.50;;;;;;5072842;28;20020;-46
2022/04/20 09:00:00;;;;;;;9.93;7.38;;;29.80;26.40;;;;;;5072411;28;20383;-45
2022/04/20 09:02:28;;;;;;;15.30;8.52;;;28.40;27.80;;;;;;5071945;28;20017;-47
2022/04/20 09:04:55;;;;;;;11.27;7.80;;;28.00;28.80;;;;;;5072118;28;20483;-52
2022/04/20 09:07:21;;;;;;;13.73;7.78;;;27.60;29.80;;;;;;5072189;28;20465;-51
2022/04/20 09:09:46;;;;;;;12.38;8.20;;;26.90;30.60;;;;;;5072274;28;20017;-42
2022/04/20 09:12:18;;;;;;;11.50;7.85;;;26.50;30.00;;;;;;5070896;28;20028;-43
2022/04/20 09:14:45;;;;;;;12.23;7.63;;;27.60;30.10;;;;;;5072278;28;20029;-44
2022/04/20 09:17:12;;;;;;;11.18;7.95;;;28.80;29.50;;;;;;5071938;28;20056;-46
2022/04/20 09:19:42;;;;;;;12.80;7.53;;;27.90;28.30;;;;;;5072144;28;20036;-48
2022/04/20 09:22:23;;;;;;;12.00;6.78;;;27.80;29.60;;;;;;5072046;28;20025;-51
2022/04/20 09:25:11;;;;;;;10.57;6.35;;;28.50;29.30;;;;;;5071908;28;20150;-48
2022/04/20 09:27:39;;;;;;;11.23;6.35;;;29.60;29.20;;;;;;5071974;28;20064;-44
2022/04/20 09:30:13;;;;;;;11.57;6.47;;;29.00;28.20;;;;;;5072134;28;20032;-49
2022/04/20 09:32:44;;;;;;;9.25;6.50;;;28.30;26.90;;;;;;5071483;28;20032;-48
2022/04/20 09:35:14;;;;;;;12.48;6.25;;;26.70;28.00;;;;;;5070492;28;20028;-55
2022/04/20 09:37:41;;;;;;;10.82;6.10;;;24.80;30.40;;;;;;5071754;28;20032;-57
2022/04/20 09:40:13;;;;;;;13.10;6.50;;;23.50;31.00;;;;;;5071407;28;20029;-54
2022/04/20 09:43:02;;;;;;;14.63;6.40;;;22.50;34.20;;;;;;5071640;28;20025;-53
2022/04/20 09:45:28;;;;;;;11.10;6.00;;;22.00;37.10;;;;;;5071675;28;20092;-48
2022/04/20 09:50:39;;;;;;;10.43;5.90;;;24.00;33.00;;;;;;5071516;28;20062;-49
2022/04/20 09:53:10;;;;;;;9.20;5.57;;;24.30;33.80;;;;;;5071408;28;20048;-43
2022/04/20 09:55:37;;;;;;;11.27;5.80;;;25.70;33.60;;;;;;5071153;28;20031;-46
2022/04/20 09:58:15;;;;;;;10.68;5.40;;;27.20;29.70;;;;;;5071548;28;20031;-45
2022/04/20 10:00:44;;;;;;;10.65;5.70;;;28.00;29.90;;;;;;5071323;28;20040;-43
2022/04/20 10:03:09;;;;;;;;;;;27.60;28.20;;;;;;5071583;28;20117;-48
2022/04/20 10:05:37;;;;;;;10.43;5.47;;;26.60;28.90;;;;;;5071165;28;20349;-46
2022/04/20 10:08:04;;;;;;;9.85;5.05;;;26.70;31.00;;;;;;5071092;28;20383;-53
2022/04/20 10:10:30;;;;;;;10.98;5.82;;;28.60;29.10;;;;;;5070877;28;20013;-47
2022/04/20 10:12:58;;;;;;;9.95;5.40;;;26.50;29.20;;;;;;5070333;28;20115;-53
2022/04/20 10:18:20;;;;;;;8.75;5.28;;;25.20;29.60;;;;;;5068369;28;20445;-50
2022/04/20 10:20:48;;;;;;;11.90;5.47;;;25.30;29.50;;;;;;5070750;28;20055;-44
2022/04/20 10:23:19;;;;;;;14.50;5.73;;;25.00;29.90;;;;;;5070448;28;20387;-44
2022/04/20 10:25:45;;;;;;;10.85;5.82;;;25.50;30.20;;;;;;5067992;28;20504;-46
2022/04/20 10:28:17;;;;;;;9.40;4.60;;;24.60;30.80;;;;;;5064359;28;20089;-49
2022/04/20 10:31:24;;;;;;;11.35;4.90;;;24.70;32.70;;;;;;5070211;28;20702;-45
2022/04/20 10:33:50;;;;;;;9.02;4.65;;;25.10;32.00;;;;;;5068770;28;20045;-45
2022/04/20 10:36:18;;;;;;;11.07;5.30;;;26.50;30.10;;;;;;5070772;28;20027;-44
2022/04/20 10:38:47;;;;;;;9.85;4.90;;;27.60;29.10;;;;;;5071099;28;20056;-47
2022/04/20 10:41:18;;;;;;;13.98;4.95;;;27.30;29.20;;;;;;5071032;28;20085;-50
2022/04/20 10:43:44;;;;;;;10.13;4.82;;;27.10;27.70;;;;;;5071240;28;20052;-53
2022/04/20 10:46:11;;;;;;;10.55;4.70;;;26.50;28.00;;;;;;5071115;28;20056;-51
2022/04/20 10:48:52;;;;;;;10.30;4.50;;;27.40;29.30;;;;;;5070989;28;20049;-52
2022/04/20 10:51:19;;;;;;;10.80;4.75;;;27.50;27.70;;;;;;5070957;28;20021;-47
2022/04/20 10:53:48;;;;;;;10.07;4.45;;;27.00;28.10;;;;;;5070717;28;20149;-46
2022/04/20 10:56:14;;;;;;;10.93;4.85;;;27.20;27.70;;;;;;5070856;28;20028;-46
2022/04/20 10:59:05;;;;;;;8.75;5.18;;;25.90;27.30;;;;;;5069984;28;20024;-48
2022/04/20 11:01:31;;;;;;;10.13;4.80;;;25.00;28.10;;;;;;5070854;28;20491;-44
2022/04/20 11:04:02;;;;;;;10.50;4.88;;;24.50;29.80;;;;;;5070708;28;20052;-46
2022/04/20 11:06:48;;;;;;;11.57;5.68;;;24.80;29.10;;;;;;5070689;28;20028;-46
2022/04/20 11:09:53;;;;;;;8.48;4.93;;;24.60;29.40;;;;;;5070335;28;20098;-43
2022/04/20 11:18:39;;;;;;;9.52;4.30;;;27.50;28.20;;;;;;5070758;28;20028;-55
2022/04/20 11:21:07;;;;;;;7.78;4.60;;;28.30;27.90;;;;;;5070587;28;20021;-45
2022/04/20 11:24:07;;;;;;;8.52;4.68;;;27.20;27.10;;;;;;5070709;28;20033;-50
2022/04/20 11:26:40;;;;;;;12.75;4.72;;;25.80;28.10;;;;;;5069177;28;20024;-45
2022/04/20 11:29:10;;;;;;;8.23;5.00;;;26.10;28.60;;;;;;5070303;28;20161;-46
2022/04/20 11:32:00;;;;;;;7.47;4.75;;;26.40;27.60;;;;;;5070690;28;20048;-49
2022/04/20 11:34:28;;;;;;;8.77;4.80;;;26.30;27.50;;;;;;5070141;28;20548;-45
2022/04/20 11:37:00;;;;;;;8.93;4.95;;;26.50;26.90;;;;;;5072296;28;20025;-49
2022/04/20 11:39:30;;;;;;;9.10;4.63;;;25.60;28.90;;;;;;5073866;28;20396;-45
2022/04/20 11:41:58;;;;;;;9.10;4.93;;;26.60;28.80;;;;;;5073961;28;20020;-47
2022/04/20 11:44:40;;;;;;;10.05;4.57;;;27.40;27.70;;;;;;5073800;28;20058;-48
2022/04/20 11:47:08;;;;;;;10.73;4.78;;;28.10;27.40;;;;;;5073918;28;20507;-45
2022/04/20 11:49:42;;;;;;;7.68;4.45;;;28.30;27.50;;;;;;5073942;28;20036;-50
2022/04/20 11:52:14;;;;;;;7.97;5.15;;;28.20;27.70;;;;;;5072211;28;20074;-48
2022/04/20 11:54:41;;;;;;;6.63;5.03;;;27.70;26.00;;;;;;5073718;28;20471;-42
2022/04/20 11:57:08;;;;;;;10.93;5.00;;;26.00;27.60;;;;;;5073820;28;20025;-43
2022/04/20 11:59:50;;;;;;;11.90;5.10;;;26.10;30.30;;;;;;5073626;28;20487;-44
2022/04/20 12:02:18;;;;;;;9.48;5.18;;;26.60;28.00;;;;;;5071815;28;20099;-49
2022/04/20 12:04:46;;;;;;;10.68;5.38;;;26.50;27.70;;;;;;5073839;28;20032;-46
2022/04/20 12:07:12;;;;;;;11.98;5.13;;;26.00;28.80;;;;;;5073573;28;20055;-45
2022/04/20 12:09:42;;;;;;;10.35;5.53;;;27.00;29.20;;;;;;5073623;28;20017;-51
2022/04/20 12:12:10;;;;;;;10.43;5.65;;;25.70;28.60;;;;;;5073540;28;20031;-50
2022/04/20 12:14:39;;;;;;;11.10;5.38;;;24.90;29.80;;;;;;5073103;28;20129;-49
2022/04/20 12:17:06;;;;;;;9.23;4.80;;;25.90;29.50;;;;;;5072397;28;20171;-45
2022/04/20 12:19:33;;;;;;;8.05;4.57;;;25.20;29.30;;;;;;5073221;28;20119;-48
2022/04/20 12:22:09;;;;;;;10.40;5.53;;;25.80;32.60;;;;;;5073177;28;20089;-53
2022/04/20 12:24:36;;;;;;;8.93;5.13;;;26.60;28.20;;;;;;5073358;28;20035;-50
2022/04/20 12:27:02;;;;;;;9.77;4.57;;;26.20;29.50;;;;;;5073014;28;20039;-52
2022/04/20 12:29:32;;;;;;;11.23;5.22;;;26.50;29.20;;;;;;5072871;28;20024;-45
2022/04/20 12:31:58;;;;;;;9.18;5.55;;;25.50;29.00;;;;;;5072876;28;20071;-50
2022/04/20 12:34:26;;;;;;;9.05;4.95;;;24.50;29.80;;;;;;5073195;28;20028;-51
2022/04/20 12:37:04;;;;;;;13.32;5.50;;;23.70;32.90;;;;;;5073167;28;20032;-50
2022/04/20 12:39:31;;;;;;;11.70;5.32;;;23.10;33.40;;;;;;5072760;28;20383;-48
2022/04/20 12:42:04;;;;;;;8.98;4.85;;;22.30;34.20;;;;;;5072810;28;20457;-49
2022/04/20 12:44:35;;;;;;;9.45;4.28;;;22.10;35.30;;;;;;5071901;28;20082;-52
2022/04/20 12:47:16;;;;;;;8.27;4.15;;;22.10;36.40;;;;;;5070195;28;20071;-48
2022/04/20 12:50:03;;;;;;;10.50;4.82;;;22.10;36.50;;;;;;5072408;28;20030;-44
2022/04/20 12:52:29;;;;;;;11.40;5.00;;;22.50;35.80;;;;;;5072500;28;20029;-46
2022/04/20 12:54:57;;;;;;;9.13;4.50;;;22.90;34.30;;;;;;5072620;28;20063;-45
2022/04/20 13:03:00;;;;;;;8.82;3.85;;;22.60;30.80;;;;;;5072305;28;20036;-52
2022/04/20 13:05:25;;;;;;;11.38;3.97;;;22.20;33.40;;;;;;5072361;28;20721;-47
2022/04/20 13:07:51;;;;;;;7.18;4.50;;;22.70;33.20;;;;;;5072347;28;20032;-44
2022/04/20 13:10:17;;;;;;;10.85;4.63;;;22.30;30.80;;;;;;5072383;28;20519;-50
2022/04/20 13:12:50;;;;;;;9.02;4.43;;;21.70;30.90;;;;;;5072205;28;20047;-41
2022/04/20 13:15:16;;;;;;;10.65;4.50;;;21.70;31.10;;;;;;5071972;28;20082;-57